Time;durP1;ratioP1;P1;durP2;ratioP2;P2;SDS_P1;SDS_P2;PMS_P1;PMS_P2;Temp;Humidity;BMP_temperature;BMP_pressure;BME280_temperature;BME280_humidity;BME280_pressure;Samples;Min_cycle;Max_cycle;Signal;HPM_P1;HPM_P2
2023/01/19 00:01:27;;;;;;;1.63;1.52;;;2.40;99.90;;;;;;5067356;28;20314;-62
2023/01/19 00:03:55;;;;;;;1.10;1.00;;;2.50;99.90;;;;;;5070030;28;20214;-62
2023/01/19 00:06:23;;;;;;;2.45;1.88;;;2.50;99.90;;;;;;5059036;28;20278;-62
2023/01/19 00:08:50;;;;;;;1.52;1.30;;;2.60;99.90;;;;;;5065845;28;20572;-62
2023/01/19 00:11:18;;;;;;;1.77;0.98;;;2.60;99.90;;;;;;5062951;28;20225;-62
2023/01/19 00:13:49;;;;;;;2.25;1.77;;;2.60;99.90;;;;;;5069061;28;20237;-62
2023/01/19 00:16:21;;;;;;;2.13;1.70;;;2.60;99.90;;;;;;5063755;28;20662;-62
2023/01/19 00:18:51;;;;;;;1.75;1.38;;;2.60;99.90;;;;;;5056960;28;20225;-62
2023/01/19 00:21:20;;;;;;;1.90;1.45;;;2.60;99.90;;;;;;5058351;28;20299;-62
2023/01/19 00:23:49;;;;;;;4.13;1.80;;;2.70;99.90;;;;;;5062815;28;20300;-62
2023/01/19 00:26:18;;;;;;;2.00;1.60;;;2.60;99.90;;;;;;5067718;28;20207;-62
2023/01/19 00:28:48;;;;;;;1.70;1.15;;;2.50;99.90;;;;;;5072468;28;20619;-62
2023/01/19 00:31:19;;;;;;;1.63;1.45;;;2.30;99.90;;;;;;5065913;28;20236;-62
2023/01/19 00:33:48;;;;;;;3.33;1.45;;;2.30;99.90;;;;;;5069017;28;20204;-62
2023/01/19 00:36:16;;;;;;;2.75;1.80;;;2.40;99.90;;;;;;5062859;28;20199;-62
2023/01/19 00:38:44;;;;;;;1.65;1.55;;;2.40;99.90;;;;;;5062784;28;20319;-61
2023/01/19 00:41:12;;;;;;;2.45;2.25;;;2.40;99.90;;;;;;5077221;22;20303;-62
2023/01/19 00:43:40;;;;;;;1.20;1.10;;;2.20;99.90;;;;;;5083179;28;20747;-64
2023/01/19 00:46:08;;;;;;;1.00;0.90;;;2.20;99.90;;;;;;5087472;28;20550;-64
2023/01/19 00:48:37;;;;;;;4.65;1.75;;;2.10;99.90;;;;;;5081972;28;20194;-64
2023/01/19 00:51:05;;;;;;;1.63;1.40;;;2.10;99.90;;;;;;5083824;28;20208;-64
2023/01/19 00:53:33;;;;;;;1.05;0.90;;;2.10;99.90;;;;;;5089185;28;20323;-64
2023/01/19 00:56:01;;;;;;;1.70;1.30;;;2.00;99.90;;;;;;5090382;28;20206;-64
2023/01/19 00:58:29;;;;;;;1.50;1.40;;;2.00;99.90;;;;;;5090474;28;20297;-65
2023/01/19 01:01:02;;;;;;;3.20;2.03;;;2.00;99.90;;;;;;5090641;28;20287;-65
2023/01/19 01:03:30;;;;;;;1.98;0.90;;;1.90;99.90;;;;;;5090647;28;20230;-66
2023/01/19 01:05:59;;;;;;;1.23;1.05;;;1.80;99.90;;;;;;5089825;28;20739;-65
2023/01/19 01:08:27;;;;;;;1.73;1.30;;;1.90;99.90;;;;;;5090384;28;20227;-65
2023/01/19 01:10:55;;;;;;;5.15;1.63;;;2.10;99.90;;;;;;5089838;28;20207;-65
2023/01/19 01:13:23;;;;;;;1.75;1.45;;;2.20;99.90;;;;;;5089376;28;20246;-66
2023/01/19 01:15:55;;;;;;;1.95;1.25;;;2.30;99.90;;;;;;5091713;28;20223;-66
2023/01/19 01:18:23;;;;;;;3.38;2.22;;;2.30;99.90;;;;;;5088354;28;20298;-65
2023/01/19 01:20:51;;;;;;;2.13;1.67;;;2.50;99.90;;;;;;5086828;28;20281;-64
2023/01/19 01:23:24;;;;;;;1.23;1.13;;;2.50;99.90;;;;;;5089756;28;20706;-65
2023/01/19 01:25:51;;;;;;;1.67;1.58;;;2.50;99.90;;;;;;5086237;28;20277;-65
2023/01/19 01:28:19;;;;;;;1.77;1.45;;;2.60;99.90;;;;;;5089999;28;20203;-65
2023/01/19 01:30:47;;;;;;;2.37;0.93;;;2.70;99.90;;;;;;5088482;28;20643;-65
2023/01/19 01:33:15;;;;;;;1.20;1.10;;;2.70;99.90;;;;;;5090037;28;20302;-65
2023/01/19 01:36:03;;;;;;;2.38;1.38;;;2.70;99.90;;;;;;5088726;28;20191;-66
2023/01/19 01:38:32;;;;;;;1.48;1.38;;;2.70;99.90;;;;;;5088885;28;20306;-66
2023/01/19 01:41:00;;;;;;;1.63;0.95;;;2.70;99.90;;;;;;5086305;28;20191;-63
2023/01/19 01:43:42;;;;;;;1.23;1.10;;;2.80;99.90;;;;;;5086211;28;20720;-63
2023/01/19 01:46:14;;;;;;;2.03;1.33;;;2.70;99.90;;;;;;5087113;28;20200;-63
2023/01/19 01:48:44;;;;;;;2.08;1.38;;;2.60;99.90;;;;;;5072262;28;20223;-64
2023/01/19 01:51:24;;;;;;;2.70;1.45;;;2.50;99.90;;;;;;5071736;28;20235;-65
2023/01/19 01:54:06;;;;;;;2.35;1.60;;;2.50;99.90;;;;;;5083339;28;20198;-64
2023/01/19 01:56:36;;;;;;;1.38;1.27;;;2.50;99.90;;;;;;5088543;28;20218;-65
2023/01/19 01:59:07;;;;;;;1.38;1.27;;;2.50;99.90;;;;;;5078815;28;20251;-64
2023/01/19 02:04:22;;;;;;;1.92;1.35;;;1.90;99.90;;;;;;5083579;28;20222;-64
2023/01/19 02:15:16;;;;;;;1.67;1.40;;;1.40;99.90;;;;;;5086521;28;20283;-64
2023/01/19 02:17:44;;;;;;;1.98;1.35;;;1.70;99.90;;;;;;5077378;28;20186;-65
2023/01/19 02:20:13;;;;;;;2.05;1.38;;;1.60;99.90;;;;;;5087259;28;20228;-64
2023/01/19 02:22:47;;;;;;;1.20;1.10;;;1.70;99.90;;;;;;5083106;28;20705;-64
2023/01/19 02:25:17;;;;;;;1.80;1.70;;;2.00;99.90;;;;;;5087297;28;20202;-65
2023/01/19 02:27:46;;;;;;;2.35;1.60;;;2.10;99.90;;;;;;5083055;28;20863;-65
2023/01/19 02:30:15;;;;;;;1.23;1.05;;;2.30;99.90;;;;;;5088553;28;20273;-64
2023/01/19 02:32:43;;;;;;;1.17;1.08;;;2.30;99.90;;;;;;5088112;28;20272;-65
2023/01/19 02:35:12;;;;;;;1.75;1.27;;;2.50;99.90;;;;;;5089029;28;20285;-64
2023/01/19 02:37:41;;;;;;;1.67;1.25;;;2.60;99.90;;;;;;5087298;28;20248;-64
2023/01/19 02:40:12;;;;;;;1.33;1.15;;;2.80;99.90;;;;;;5088615;28;20223;-64
2023/01/19 02:42:44;;;;;;;1.83;1.73;;;2.90;99.90;;;;;;5079252;28;20326;-64
2023/01/19 02:45:15;;;;;;;2.55;1.50;;;2.80;99.90;;;;;;5087948;28;20291;-64
2023/01/19 02:47:45;;;;;;;1.83;1.60;;;2.80;99.90;;;;;;5075557;28;20198;-64
2023/01/19 02:50:49;;;;;;;1.60;1.50;;;2.90;99.90;;;;;;5087576;28;20222;-65
2023/01/19 02:53:33;;;;;;;2.17;1.35;;;2.90;99.90;;;;;;5024136;28;20266;-65
2023/01/19 02:56:15;;;;;;;1.48;1.33;;;2.60;99.90;;;;;;5021906;28;20275;-64
2023/01/19 02:58:52;;;;;;;1.45;1.35;;;2.50;99.90;;;;;;5066449;28;20737;-63
2023/01/19 03:01:27;;;;;;;1.52;1.35;;;2.00;99.90;;;;;;5088403;28;20194;-64
2023/01/19 03:04:01;;;;;;;2.03;1.67;;;1.20;99.90;;;;;;5086824;28;20199;-64
2023/01/19 03:06:39;;;;;;;1.58;1.08;;;0.60;99.90;;;;;;5086605;28;20289;-64
2023/01/19 03:09:12;;;;;;;2.05;1.40;;;0.20;99.90;;;;;;5083711;28;20282;-64
2023/01/19 03:11:46;;;;;;;1.58;1.48;;;-0.30;99.90;;;;;;5081926;28;20313;-63
2023/01/19 03:14:21;;;;;;;2.58;1.25;;;-0.20;99.90;;;;;;5083668;28;20211;-64
2023/01/19 03:16:54;;;;;;;2.17;2.00;;;-0.60;99.90;;;;;;5084425;28;20244;-64
2023/01/19 03:19:26;;;;;;;1.25;0.95;;;-0.40;99.90;;;;;;5077629;28;20242;-64
2023/01/19 03:21:58;;;;;;;2.05;1.95;;;-0.20;99.90;;;;;;5074827;28;20227;-64
2023/01/19 03:24:30;;;;;;;1.58;1.42;;;0.00;99.90;;;;;;5085368;28;20205;-65
2023/01/19 03:27:02;;;;;;;1.65;0.98;;;0.40;99.90;;;;;;5089213;28;20200;-65
2023/01/19 03:29:34;;;;;;;1.60;1.35;;;0.80;99.90;;;;;;5088142;28;20270;-65
2023/01/19 03:32:08;;;;;;;1.80;1.67;;;1.10;99.90;;;;;;5087451;28;20230;-65
2023/01/19 03:34:38;;;;;;;2.30;1.73;;;1.40;99.90;;;;;;5084857;28;20671;-65
2023/01/19 03:37:09;;;;;;;2.38;1.35;;;1.50;99.90;;;;;;5090515;28;20199;-65
2023/01/19 03:39:37;;;;;;;1.40;1.27;;;1.70;99.90;;;;;;5081574;28;20214;-65
2023/01/19 03:42:09;;;;;;;1.60;1.45;;;1.80;99.90;;;;;;5086805;28;20326;-65
2023/01/19 03:44:40;;;;;;;1.10;1.00;;;2.00;99.90;;;;;;5090320;28;20663;-65
2023/01/19 03:47:10;;;;;;;4.28;1.52;;;2.20;99.90;;;;;;5091018;28;20195;-64
2023/01/19 03:49:41;;;;;;;2.92;2.03;;;2.20;99.90;;;;;;5090212;28;20199;-64
2023/01/19 03:52:10;;;;;;;2.40;2.17;;;2.30;99.90;;;;;;5090899;28;20211;-65
2023/01/19 03:54:37;;;;;;;2.15;1.67;;;2.40;99.90;;;;;;5084727;28;20277;-65
2023/01/19 03:57:05;;;;;;;1.30;1.20;;;2.40;99.90;;;;;;5088776;28;20203;-64
2023/01/19 03:59:34;;;;;;;1.85;1.50;;;2.40;99.90;;;;;;5087554;28;20283;-65
2023/01/19 04:02:03;;;;;;;2.97;1.17;;;2.30;99.90;;;;;;5089466;28;20640;-65
2023/01/19 04:04:31;;;;;;;1.35;1.25;;;2.30;99.90;;;;;;5083451;28;20199;-64
2023/01/19 04:07:00;;;;;;;2.05;1.60;;;2.40;99.90;;;;;;5085898;28;20283;-64
2023/01/19 04:09:28;;;;;;;1.50;1.40;;;2.40;99.90;;;;;;5078279;28;20668;-64
2023/01/19 04:11:56;;;;;;;1.77;1.25;;;2.50;99.90;;;;;;5087397;28;20223;-65
2023/01/19 04:14:23;;;;;;;2.20;1.95;;;2.50;99.90;;;;;;5089983;28;20223;-65
2023/01/19 04:16:51;;;;;;;2.60;1.95;;;2.40;99.90;;;;;;5085646;28;20235;-64
2023/01/19 04:19:20;;;;;;;1.85;1.27;;;2.50;99.90;;;;;;5089533;28;20865;-64
2023/01/19 04:21:49;;;;;;;1.77;1.67;;;2.60;99.90;;;;;;5088468;28;20234;-64
2023/01/19 04:24:17;;;;;;;2.35;2.15;;;2.40;99.90;;;;;;5080219;28;20225;-64
2023/01/19 04:26:45;;;;;;;2.85;1.92;;;2.40;99.90;;;;;;5087940;28;20214;-64
2023/01/19 04:29:13;;;;;;;1.65;1.55;;;2.30;99.90;;;;;;5090749;28;20191;-65
2023/01/19 04:31:41;;;;;;;1.73;1.63;;;2.20;99.90;;;;;;5091230;28;20293;-64
2023/01/19 04:34:09;;;;;;;1.80;1.27;;;2.00;99.90;;;;;;5090904;28;20198;-64
2023/01/19 04:36:38;;;;;;;1.80;1.55;;;1.80;99.90;;;;;;5090894;28;20673;-64
2023/01/19 04:39:07;;;;;;;1.40;1.27;;;1.80;99.90;;;;;;5090874;28;20206;-64
2023/01/19 04:41:35;;;;;;;1.75;1.55;;;1.80;99.90;;;;;;5087498;28;20727;-64
2023/01/19 04:44:03;;;;;;;1.42;1.33;;;2.00;99.90;;;;;;5089926;28;20306;-64
2023/01/19 04:46:32;;;;;;;1.63;1.23;;;1.80;99.90;;;;;;5087823;28;20281;-63
2023/01/19 04:49:00;;;;;;;1.63;1.52;;;1.40;99.90;;;;;;5090786;28;20194;-65
2023/01/19 04:51:28;;;;;;;2.22;1.80;;;1.10;99.90;;;;;;5088344;28;20722;-65
2023/01/19 04:53:57;;;;;;;1.95;1.60;;;1.10;99.90;;;;;;5087240;28;20286;-64
2023/01/19 04:56:25;;;;;;;1.45;1.27;;;1.10;99.90;;;;;;5093325;28;20714;-64
2023/01/19 04:58:53;;;;;;;1.40;1.20;;;1.30;99.90;;;;;;5074097;28;20282;-63
2023/01/19 05:01:21;;;;;;;1.77;1.42;;;1.50;99.90;;;;;;5072446;28;20219;-63
2023/01/19 05:03:49;;;;;;;1.38;1.10;;;1.60;99.90;;;;;;5090911;28;20736;-63
2023/01/19 05:06:17;;;;;;;1.60;1.50;;;1.80;99.90;;;;;;5093520;28;20202;-64
2023/01/19 05:08:45;;;;;;;3.50;2.28;;;1.90;99.90;;;;;;5088923;28;20196;-63
2023/01/19 05:11:14;;;;;;;2.60;1.88;;;1.80;99.90;;;;;;5083830;28;20677;-63
2023/01/19 05:13:42;;;;;;;2.80;1.70;;;2.00;99.90;;;;;;5093618;28;20214;-63
2023/01/19 05:16:10;;;;;;;2.35;2.15;;;2.20;99.90;;;;;;5093483;28;20273;-63
2023/01/19 05:18:38;;;;;;;2.95;2.22;;;2.20;99.90;;;;;;5099034;28;20187;-63
2023/01/19 05:21:06;;;;;;;1.95;1.85;;;2.20;99.90;;;;;;5097985;28;20219;-63
2023/01/19 05:23:34;;;;;;;1.98;1.77;;;2.20;99.90;;;;;;5093742;28;20692;-63
2023/01/19 05:26:02;;;;;;;3.10;2.05;;;2.30;99.90;;;;;;5089987;28;20278;-63
2023/01/19 05:28:33;;;;;;;2.75;1.83;;;2.20;99.90;;;;;;5091665;28;20283;-63
2023/01/19 05:31:01;;;;;;;2.67;1.60;;;2.10;99.90;;;;;;5090324;28;20244;-63
2023/01/19 05:33:29;;;;;;;4.28;2.47;;;2.20;99.90;;;;;;5091453;28;20622;-63
2023/01/19 05:35:57;;;;;;;2.63;1.52;;;2.30;99.90;;;;;;5090523;28;20724;-63
2023/01/19 05:38:24;;;;;;;4.28;2.20;;;2.40;99.90;;;;;;5073136;28;20274;-64
2023/01/19 05:41:02;;;;;;;3.33;2.60;;;2.20;99.90;;;;;;5070749;28;20219;-64
2023/01/19 05:43:30;;;;;;;2.80;2.25;;;2.30;99.90;;;;;;5072248;28;20307;-64
2023/01/19 05:45:59;;;;;;;2.60;1.95;;;2.50;99.90;;;;;;5079281;28;20195;-64
2023/01/19 05:48:26;;;;;;;1.75;1.58;;;2.60;99.90;;;;;;5083869;28;20199;-64
2023/01/19 05:50:57;;;;;;;2.13;1.92;;;2.70;99.90;;;;;;5075721;28;20227;-64
2023/01/19 05:53:25;;;;;;;1.88;1.42;;;2.80;99.90;;;;;;5077505;28;20219;-64
2023/01/19 05:55:53;;;;;;;1.73;1.63;;;2.90;99.90;;;;;;5071627;28;20219;-63
2023/01/19 05:58:21;;;;;;;2.05;1.60;;;3.00;99.90;;;;;;5072080;28;20209;-63
2023/01/19 06:00:49;;;;;;;1.65;1.42;;;3.30;99.90;;;;;;5086062;28;20227;-64
2023/01/19 06:03:18;;;;;;;1.77;1.45;;;3.30;99.90;;;;;;5078371;28;20217;-65
2023/01/19 06:05:46;;;;;;;3.30;2.33;;;3.40;99.90;;;;;;5085480;28;20227;-65
2023/01/19 06:08:14;;;;;;;3.00;2.42;;;3.20;99.90;;;;;;5081120;28;20577;-64
2023/01/19 06:10:42;;;;;;;3.20;2.35;;;2.90;99.90;;;;;;5083472;28;20842;-63
2023/01/19 06:13:10;;;;;;;1.75;1.65;;;2.60;99.90;;;;;;5085107;28;20218;-65
2023/01/19 06:15:37;;;;;;;1.73;1.48;;;2.20;99.90;;;;;;5089129;28;20230;-64
2023/01/19 06:18:05;;;;;;;1.77;1.15;;;1.90;99.90;;;;;;5083916;28;20209;-63
2023/01/19 06:20:35;;;;;;;2.65;1.80;;;1.70;99.90;;;;;;5087883;28;20208;-64
2023/01/19 06:23:03;;;;;;;1.80;1.70;;;1.50;99.90;;;;;;5089458;28;20230;-63
2023/01/19 06:25:31;;;;;;;2.13;1.75;;;1.20;99.90;;;;;;5081116;28;20202;-63
2023/01/19 06:27:59;;;;;;;2.03;1.55;;;0.90;99.90;;;;;;5090362;28;20202;-63
2023/01/19 06:30:27;;;;;;;1.67;1.58;;;0.60;99.90;;;;;;5088643;28;20309;-63
2023/01/19 06:32:55;;;;;;;2.58;2.03;;;0.50;99.90;;;;;;5089126;28;20232;-63
2023/01/19 06:35:23;;;;;;;1.67;1.58;;;0.30;99.90;;;;;;5087704;28;20221;-63
2023/01/19 06:37:53;;;;;;;1.50;1.40;;;0.30;99.90;;;;;;5083496;28;20205;-63
2023/01/19 06:40:21;;;;;;;2.45;2.20;;;0.30;99.90;;;;;;5083815;28;20742;-63
2023/01/19 06:42:49;;;;;;;3.08;2.78;;;0.20;99.90;;;;;;5094191;22;20234;-65
2023/01/19 06:45:16;;;;;;;4.03;2.65;;;0.10;99.90;;;;;;5046163;28;20215;-62
2023/01/19 06:47:47;;;;;;;1.42;1.33;;;0.10;99.90;;;;;;5040733;28;20676;-62
2023/01/19 06:50:15;;;;;;;1.45;1.35;;;0.10;99.90;;;;;;5041183;28;20602;-62
2023/01/19 06:52:43;;;;;;;2.15;1.95;;;0.10;99.90;;;;;;5042141;28;20230;-62
2023/01/19 06:55:13;;;;;;;2.05;1.95;;;0.10;99.90;;;;;;5044420;28;20239;-62
2023/01/19 06:57:41;;;;;;;2.08;1.98;;;0.10;99.90;;;;;;5048950;28;20196;-62
2023/01/19 07:00:10;;;;;;;1.48;1.38;;;0.10;99.90;;;;;;5048397;28;20218;-62
2023/01/19 07:02:42;;;;;;;2.95;2.45;;;0.10;99.90;;;;;;5039205;28;20278;-63
2023/01/19 07:05:13;;;;;;;2.53;2.17;;;0.20;99.90;;;;;;5052534;28;20676;-62
2023/01/19 07:07:42;;;;;;;1.92;1.83;;;0.10;99.90;;;;;;5042105;28;20200;-62
2023/01/19 07:10:14;;;;;;;2.25;2.03;;;0.10;99.90;;;;;;5048935;28;20208;-62
2023/01/19 07:12:45;;;;;;;1.55;1.40;;;0.10;99.90;;;;;;5043001;28;20220;-62
2023/01/19 07:15:13;;;;;;;2.75;1.80;;;0.00;99.90;;;;;;5066461;28;20207;-62
2023/01/19 07:17:41;;;;;;;1.55;1.25;;;-0.10;99.90;;;;;;5049961;28;20726;-62
2023/01/19 07:20:11;;;;;;;2.47;1.65;;;-0.10;99.90;;;;;;5049298;28;20203;-63
2023/01/19 07:22:40;;;;;;;1.80;1.70;;;-0.10;99.90;;;;;;5050007;28;20643;-62
2023/01/19 07:25:08;;;;;;;2.25;1.90;;;-0.20;99.90;;;;;;5049757;28;20933;-62
2023/01/19 07:27:39;;;;;;;2.25;2.03;;;-0.20;99.90;;;;;;5048311;28;20202;-62
2023/01/19 07:30:08;;;;;;;3.25;2.03;;;-0.10;99.90;;;;;;5049299;28;20283;-62
2023/01/19 07:32:36;;;;;;;1.52;1.42;;;0.00;99.90;;;;;;5049221;28;20227;-63
2023/01/19 07:35:05;;;;;;;1.38;1.27;;;0.00;99.90;;;;;;5049816;28;20294;-63
2023/01/19 07:37:33;;;;;;;1.85;1.48;;;0.10;99.90;;;;;;5048090;28;20200;-62
2023/01/19 07:40:00;;;;;;;1.77;1.67;;;0.10;99.90;;;;;;5047573;28;20281;-62
2023/01/19 07:42:28;;;;;;;3.65;2.28;;;0.10;99.90;;;;;;5043795;28;20220;-63
2023/01/19 07:44:57;;;;;;;3.28;2.45;;;0.20;99.90;;;;;;5045029;28;20197;-63
2023/01/19 07:47:25;;;;;;;1.85;1.75;;;0.30;99.90;;;;;;5043021;28;20231;-62
2023/01/19 07:49:53;;;;;;;3.67;2.22;;;0.20;99.90;;;;;;5045185;28;20200;-63
2023/01/19 07:52:21;;;;;;;1.67;1.58;;;0.20;99.90;;;;;;5045130;28;20658;-62
2023/01/19 07:54:50;;;;;;;1.63;1.52;;;0.20;99.90;;;;;;5045106;28;20204;-62
2023/01/19 07:57:18;;;;;;;2.40;2.20;;;0.30;99.90;;;;;;5043551;28;20207;-62
2023/01/19 07:59:46;;;;;;;2.40;1.92;;;0.30;99.90;;;;;;5051450;28;21010;-63
2023/01/19 08:02:15;;;;;;;2.67;2.47;;;0.30;99.90;;;;;;5049252;28;20236;-63
2023/01/19 08:04:44;;;;;;;2.17;1.98;;;0.30;99.90;;;;;;5055216;28;20227;-63
2023/01/19 08:07:12;;;;;;;3.33;1.50;;;0.30;99.90;;;;;;5049824;28;20195;-62
2023/01/19 08:09:40;;;;;;;1.92;1.70;;;0.40;99.90;;;;;;5050181;28;20253;-63
2023/01/19 08:12:08;;;;;;;1.33;1.00;;;0.40;99.90;;;;;;5051650;28;21806;-63
2023/01/19 08:14:36;;;;;;;1.95;1.70;;;0.40;99.90;;;;;;5047665;28;20211;-63
2023/01/19 08:17:04;;;;;;;1.70;1.55;;;0.60;99.90;;;;;;5047135;28;20283;-63
2023/01/19 08:19:33;;;;;;;2.83;1.88;;;0.80;99.90;;;;;;5049491;28;20265;-63
2023/01/19 08:22:01;;;;;;;3.03;2.42;;;1.10;99.90;;;;;;5050978;28;20219;-63
2023/01/19 08:24:29;;;;;;;2.72;2.22;;;1.30;99.90;;;;;;5051519;28;20231;-64
2023/01/19 08:27:01;;;;;;;2.90;2.05;;;1.50;99.90;;;;;;5053328;28;20205;-63
2023/01/19 08:29:29;;;;;;;2.35;2.15;;;1.70;99.90;;;;;;5051197;28;20565;-63
2023/01/19 08:31:58;;;;;;;2.80;2.55;;;1.90;99.90;;;;;;5053562;28;20257;-63
2023/01/19 08:34:26;;;;;;;1.73;1.58;;;1.90;99.90;;;;;;5049820;28;20802;-63
2023/01/19 08:36:56;;;;;;;2.20;1.98;;;2.00;99.90;;;;;;5053918;28;20197;-63
2023/01/19 08:39:24;;;;;;;2.05;1.95;;;2.00;99.90;;;;;;5048947;28;20210;-63
2023/01/19 08:41:52;;;;;;;2.08;1.63;;;2.10;99.90;;;;;;5053175;28;20283;-63
2023/01/19 08:44:20;;;;;;;2.15;1.95;;;2.20;99.90;;;;;;5051012;28;20247;-63
2023/01/19 08:46:48;;;;;;;2.75;2.47;;;2.20;99.90;;;;;;5053353;28;20287;-63
2023/01/19 08:49:16;;;;;;;3.10;2.85;;;2.20;99.90;;;;;;5053902;28;20278;-63
2023/01/19 08:51:45;;;;;;;1.40;1.30;;;2.20;99.90;;;;;;5050357;28;20184;-63
2023/01/19 08:54:15;;;;;;;2.17;1.98;;;2.20;99.90;;;;;;5049105;28;20226;-63
2023/01/19 08:56:45;;;;;;;3.53;3.22;;;2.20;99.90;;;;;;5046018;28;20682;-63
2023/01/19 08:59:13;;;;;;;1.92;1.75;;;2.20;99.90;;;;;;5054884;28;20192;-63
2023/01/19 09:01:41;;;;;;;1.85;1.75;;;2.40;99.90;;;;;;5050545;28;20311;-63
2023/01/19 09:04:09;;;;;;;2.53;2.22;;;2.70;99.90;;;;;;5052294;28;20229;-64
2023/01/19 09:06:37;;;;;;;4.30;2.85;;;2.90;99.90;;;;;;5051601;28;20211;-64
2023/01/19 09:09:05;;;;;;;2.75;2.25;;;3.10;99.90;;;;;;5047348;28;21739;-63
2023/01/19 09:11:34;;;;;;;2.53;2.33;;;3.30;99.90;;;;;;5049141;28;20341;-63
2023/01/19 09:14:04;;;;;;;2.88;1.15;;;3.40;99.90;;;;;;5048814;28;20235;-63
2023/01/19 09:16:32;;;;;;;3.40;2.92;;;3.40;99.90;;;;;;5048614;28;20624;-64
2023/01/19 09:19:00;;;;;;;3.10;2.20;;;3.30;99.90;;;;;;5048058;28;20220;-63
2023/01/19 09:21:28;;;;;;;2.70;2.50;;;3.40;99.90;;;;;;5052617;28;20214;-63
2023/01/19 09:23:56;;;;;;;2.95;2.72;;;3.40;99.90;;;;;;5045596;28;20308;-64
2023/01/19 09:26:24;;;;;;;3.67;3.08;;;3.50;99.90;;;;;;5054003;28;20207;-63
2023/01/19 09:28:53;;;;;;;2.22;2.03;;;3.50;99.90;;;;;;5050196;28;21026;-63
2023/01/19 09:31:22;;;;;;;2.83;2.08;;;3.30;99.90;;;;;;5047448;28;20289;-63
2023/01/19 09:33:50;;;;;;;3.78;2.30;;;3.00;99.90;;;;;;5045609;28;20220;-63
2023/01/19 09:36:18;;;;;;;2.35;1.65;;;3.00;99.90;;;;;;5052238;28;20199;-63
2023/01/19 09:38:46;;;;;;;2.03;1.88;;;3.10;99.90;;;;;;5052223;28;20212;-63
2023/01/19 09:41:20;;;;;;;3.25;2.30;;;3.20;99.90;;;;;;5047263;28;20192;-63
2023/01/19 09:43:54;;;;;;;1.92;1.75;;;3.30;99.90;;;;;;5044809;28;20261;-63
2023/01/19 09:46:27;;;;;;;2.50;2.30;;;3.30;99.90;;;;;;5051698;28;20209;-63
2023/01/19 09:48:57;;;;;;;2.55;2.35;;;3.10;99.90;;;;;;5046638;28;20197;-63
2023/01/19 09:51:27;;;;;;;2.25;1.80;;;3.00;99.90;;;;;;5049965;28;20228;-63
2023/01/19 09:54:03;;;;;;;5.25;3.58;;;3.00;99.90;;;;;;5051518;28;20293;-63
2023/01/19 09:56:32;;;;;;;2.78;1.95;;;3.00;99.90;;;;;;5050137;28;20641;-63
2023/01/19 09:59:12;;;;;;;2.28;1.63;;;2.90;99.90;;;;;;5053623;28;20212;-62
2023/01/19 10:01:51;;;;;;;2.33;2.10;;;3.00;99.90;;;;;;5049395;28;20196;-63
2023/01/19 10:04:36;;;;;;;4.18;2.92;;;3.10;99.90;;;;;;5045968;28;20278;-63
2023/01/19 10:07:10;;;;;;;1.35;1.25;;;3.30;99.90;;;;;;5047166;28;20289;-62
2023/01/19 10:09:48;;;;;;;2.47;2.28;;;3.30;99.90;;;;;;5047310;28;20638;-63
2023/01/19 10:12:25;;;;;;;1.77;1.63;;;3.40;99.90;;;;;;5046759;28;20303;-63
2023/01/19 10:15:02;;;;;;;1.77;1.67;;;3.40;99.90;;;;;;5049241;28;20255;-63
2023/01/19 10:17:42;;;;;;;1.33;0.95;;;3.30;99.90;;;;;;5049155;28;22272;-62
2023/01/19 10:20:16;;;;;;;1.25;1.15;;;3.20;99.90;;;;;;5049611;28;20274;-63
2023/01/19 10:22:48;;;;;;;1.70;1.25;;;3.30;99.90;;;;;;5047317;28;20280;-63
2023/01/19 10:25:22;;;;;;;1.00;0.90;;;3.20;99.90;;;;;;5045968;28;20211;-63
2023/01/19 10:27:50;;;;;;;1.23;1.10;;;3.10;99.90;;;;;;5049117;28;20220;-63
2023/01/19 10:30:23;;;;;;;1.65;1.27;;;3.10;99.90;;;;;;5045564;28;20227;-63
2023/01/19 10:32:52;;;;;;;1.92;1.73;;;3.00;99.90;;;;;;5044072;28;20287;-63
2023/01/19 10:35:23;;;;;;;1.40;1.15;;;2.90;99.90;;;;;;5049456;28;20231;-63
2023/01/19 10:37:54;;;;;;;1.23;0.88;;;2.90;99.90;;;;;;5050126;28;20204;-62
2023/01/19 10:40:29;;;;;;;0.80;0.73;;;2.80;99.90;;;;;;5052130;28;20666;-63
2023/01/19 10:42:58;;;;;;;1.33;1.15;;;2.80;99.90;;;;;;5045164;28;20237;-62
2023/01/19 10:45:30;;;;;;;1.48;1.38;;;2.80;99.90;;;;;;5045841;28;20220;-63
2023/01/19 10:48:04;;;;;;;0.90;0.80;;;2.60;99.90;;;;;;5045393;28;20208;-63
2023/01/19 10:50:34;;;;;;;1.35;1.15;;;2.60;99.90;;;;;;5051274;28;20738;-62
2023/01/19 10:53:04;;;;;;;1.48;1.38;;;2.60;99.90;;;;;;5050797;28;20239;-63
2023/01/19 10:55:36;;;;;;;1.60;1.50;;;2.60;99.90;;;;;;5048004;28;20215;-63
2023/01/19 10:58:05;;;;;;;1.35;1.15;;;2.60;99.90;;;;;;5047491;28;20196;-63
2023/01/19 11:00:37;;;;;;;1.92;1.70;;;2.50;99.90;;;;;;5045784;28;20264;-62
2023/01/19 11:03:20;;;;;;;0.90;0.80;;;2.50;99.90;;;;;;5051012;28;20746;-64
2023/01/19 11:05:48;;;;;;;1.80;1.45;;;2.50;99.90;;;;;;5047094;28;20191;-63
2023/01/19 11:08:28;;;;;;;1.30;1.20;;;2.40;99.90;;;;;;5049374;28;20664;-63
2023/01/19 11:11:03;;;;;;;0.65;0.60;;;2.50;99.90;;;;;;5048715;28;20206;-64
2023/01/19 11:13:31;;;;;;;1.30;1.20;;;2.50;99.90;;;;;;5047259;28;20269;-63
2023/01/19 11:16:06;;;;;;;1.70;1.20;;;2.50;99.90;;;;;;5048660;28;20727;-64
2023/01/19 11:18:36;;;;;;;2.03;0.95;;;2.50;99.90;;;;;;5044573;28;20315;-63
2023/01/19 11:21:07;;;;;;;1.90;1.10;;;2.50;99.90;;;;;;5045486;28;20196;-63
2023/01/19 11:23:41;;;;;;;1.08;0.95;;;2.50;99.90;;;;;;5048964;28;20779;-63
2023/01/19 11:26:15;;;;;;;1.88;1.13;;;2.50;99.90;;;;;;5045888;28;20231;-63
2023/01/19 11:28:47;;;;;;;2.13;1.80;;;2.40;99.90;;;;;;5050829;28;20300;-63
2023/01/19 11:31:31;;;;;;;1.30;1.20;;;2.40;99.90;;;;;;5046623;28;20293;-63
2023/01/19 11:34:01;;;;;;;0.98;0.77;;;2.40;99.90;;;;;;5047018;28;20269;-63
2023/01/19 11:36:31;;;;;;;1.55;0.95;;;2.30;99.90;;;;;;5057722;28;20192;-63
2023/01/19 11:39:02;;;;;;;3.08;1.10;;;2.30;99.90;;;;;;5054020;28;20209;-63
2023/01/19 11:41:33;;;;;;;0.75;0.75;;;2.30;99.90;;;;;;5054301;28;20210;-63
2023/01/19 11:44:11;;;;;;;1.73;1.30;;;2.30;99.90;;;;;;5048217;28;20338;-63
2023/01/19 11:46:43;;;;;;;1.38;1.27;;;2.30;99.90;;;;;;5053428;28;20310;-63
2023/01/19 11:49:20;;;;;;;1.02;0.93;;;2.30;99.90;;;;;;5054349;28;20231;-63
2023/01/19 11:51:54;;;;;;;0.80;0.80;;;2.30;99.90;;;;;;5054503;28;20280;-63
2023/01/19 11:54:28;;;;;;;1.00;0.90;;;2.30;99.90;;;;;;5050021;28;20215;-63
2023/01/19 11:56:59;;;;;;;1.52;1.35;;;2.30;99.90;;;;;;5051834;28;20567;-63
2023/01/19 11:59:27;;;;;;;1.70;1.42;;;2.40;99.90;;;;;;5050246;28;20193;-63
2023/01/19 12:01:59;;;;;;;1.45;1.13;;;2.40;99.90;;;;;;5051180;28;20192;-63
2023/01/19 12:04:31;;;;;;;1.55;1.00;;;2.40;99.90;;;;;;5048718;28;20228;-63
2023/01/19 12:07:05;;;;;;;1.15;1.05;;;2.50;99.90;;;;;;5053736;28;20204;-63
2023/01/19 12:09:41;;;;;;;1.73;1.08;;;2.50;99.90;;;;;;5056985;28;20740;-62
2023/01/19 12:12:16;;;;;;;0.95;0.88;;;2.50;99.90;;;;;;5053162;28;20213;-64
2023/01/19 12:14:53;;;;;;;2.55;1.80;;;2.50;99.90;;;;;;5047537;28;20201;-63
2023/01/19 12:17:26;;;;;;;2.05;1.67;;;2.50;99.90;;;;;;5051014;28;20780;-63
2023/01/19 12:20:00;;;;;;;2.00;1.73;;;2.50;99.90;;;;;;5051101;28;20291;-63
2023/01/19 12:22:30;;;;;;;1.52;1.10;;;2.50;99.90;;;;;;5052659;28;20288;-63
2023/01/19 12:25:05;;;;;;;1.75;1.60;;;2.50;99.90;;;;;;5049418;28;20221;-63
2023/01/19 12:27:39;;;;;;;1.60;1.50;;;2.50;99.90;;;;;;5058149;28;20318;-63
2023/01/19 12:30:18;;;;;;;1.80;1.55;;;2.50;99.90;;;;;;5045693;28;20280;-63
2023/01/19 12:32:50;;;;;;;1.70;1.23;;;2.50;99.90;;;;;;5043795;28;20221;-63
2023/01/19 12:35:55;;;;;;;1.50;1.40;;;2.60;99.90;;;;;;5051706;28;20203;-63
2023/01/19 12:38:51;;;;;;;0.95;0.95;;;2.50;99.90;;;;;;4968320;28;20951;-63
2023/01/19 12:41:23;;;;;;;1.52;1.35;;;2.60;99.90;;;;;;4971397;28;20681;-63
2023/01/19 12:44:17;;;;;;;1.80;1.23;;;2.40;99.90;;;;;;5061984;22;20582;-70
2023/01/19 12:46:48;;;;;;;1.15;1.00;;;2.50;99.90;;;;;;5083793;28;20239;-72
2023/01/19 12:49:24;;;;;;;0.85;0.85;;;2.40;99.90;;;;;;5084098;28;20277;-73
2023/01/19 12:51:55;;;;;;;1.77;1.23;;;2.40;99.90;;;;;;5083854;28;20198;-73
2023/01/19 12:54:30;;;;;;;1.58;1.45;;;2.40;99.90;;;;;;5089563;28;20803;-72
2023/01/19 12:57:02;;;;;;;1.15;0.90;;;2.50;99.90;;;;;;5087491;28;20203;-74
2023/01/19 12:59:31;;;;;;;2.55;1.35;;;2.50;99.90;;;;;;5089222;28;20203;-72
2023/01/19 13:02:32;;;;;;;1.15;1.05;;;2.50;99.90;;;;;;5085445;28;20631;-73
2023/01/19 13:05:22;;;;;;;1.38;1.15;;;2.60;99.90;;;;;;5085691;28;20694;-74
2023/01/19 13:08:22;;;;;;;1.55;1.13;;;2.70;99.90;;;;;;5089008;28;20204;-73
2023/01/19 13:11:15;;;;;;;1.10;0.90;;;2.70;99.90;;;;;;5084766;28;20241;-73
2023/01/19 13:13:45;;;;;;;1.92;1.67;;;2.60;99.90;;;;;;5088308;28;20639;-75
2023/01/19 13:16:50;;;;;;;1.00;0.90;;;2.70;99.90;;;;;;5085896;28;20199;-73
2023/01/19 13:19:22;;;;;;;1.38;1.27;;;2.50;99.90;;;;;;5087433;28;20231;-73
2023/01/19 13:21:53;;;;;;;1.00;0.90;;;2.50;99.90;;;;;;5087212;28;20205;-74
2023/01/19 13:24:22;;;;;;;1.35;1.23;;;2.50;99.90;;;;;;5086817;28;20224;-74
2023/01/19 13:26:56;;;;;;;1.45;1.27;;;2.50;99.90;;;;;;5087413;28;20306;-73
2023/01/19 13:29:29;;;;;;;1.48;1.38;;;2.50;99.90;;;;;;5084107;28;20252;-73